Time,TemperatureF,DewpointF,PressureIn,WindDirection,WindDirectionDegrees,WindSpeedMPH,WindSpeedGustMPH,Humidity,HourlyPrecipIn,Conditions,Clouds,dailyrainin,SoftwareType,DateUTC
2013-10-04 00:04:00,65.1,58.4,29.65,SSE,157,0.0,0.0,79,0.00,,,0.00,WUHU21623XXSP,2013-10-04 04:04:00,
2013-10-04 00:13:00,64.9,58.3,29.65,SSE,157,0.0,0.0,79,0.00,,,0.00,WUHU21623XXSP,2013-10-04 04:13:00,
2013-10-04 00:18:00,64.8,58.5,29.65,SSE,157,0.0,0.0,80,0.00,,,0.00,WUHU21623XXSP,2013-10-04 04:18:00,
2013-10-04 00:32:00,64.8,58.5,29.64,SSE,157,0.0,0.0,80,0.00,,,0.00,WUHU21623XXSP,2013-10-04 04:32:00,
2013-10-04 00:35:00,64.6,58.6,29.64,SSE,157,0.0,0.0,81,0.00,,,0.00,WUHU21623XXSP,2013-10-04 04:35:00,
2013-10-04 00:40:00,64.4,58.4,29.64,SSE,157,0.0,0.0,81,0.00,,,0.00,WUHU21623XXSP,2013-10-04 04:40:00,
2013-10-04 00:43:00,64.2,58.6,29.64,SSE,157,0.0,0.0,82,0.00,,,0.00,WUHU21623XXSP,2013-10-04 04:43:00,
2013-10-04 00:45:00,64.2,58.6,29.64,SSE,157,0.0,0.0,82,0.00,,,0.00,WUHU21623XXSP,2013-10-04 04:45:00,
2013-10-04 00:46:00,64.2,58.9,29.64,SSE,157,0.0,0.0,83,0.00,,,0.00,WUHU21623XXSP,2013-10-04 04:46:00,
2013-10-04 00:51:00,64.0,58.8,29.64,SSE,157,0.0,0.0,83,0.00,,,0.00,WUHU21623XXSP,2013-10-04 04:51:00,
2013-10-04 00:55:00,64.0,58.4,29.64,SSE,157,0.0,0.0,82,0.00,,,0.00,WUHU21623XXSP,2013-10-04 04:55:00,
2013-10-04 00:57:00,64.0,58.4,29.64,SSE,157,0.0,0.0,82,0.00,,,0.00,WUHU21623XXSP,2013-10-04 04:57:00,
2013-10-04 01:02:00,64.0,58.4,29.64,SSE,157,0.0,0.0,82,0.00,,,0.00,WUHU21623XXSP,2013-10-04 05:02:00,
2013-10-04 01:03:00,63.9,58.2,29.64,SSE,157,0.0,0.0,82,0.00,,,0.00,WUHU21623XXSP,2013-10-04 05:03:00,
2013-10-04 01:06:00,63.7,58.1,29.64,SSE,157,0.0,0.0,82,0.00,,,0.00,WUHU21623XXSP,2013-10-04 05:06:00,
2013-10-04 01:11:00,63.7,58.1,29.64,SSE,157,0.0,0.0,82,0.00,,,0.00,WUHU21623XXSP,2013-10-04 05:11:00,
2013-10-04 01:12:00,63.7,58.1,29.64,SSE,157,0.0,0.0,82,0.00,,,0.00,WUHU21623XXSP,2013-10-04 05:12:00,
2013-10-04 01:17:00,63.7,58.1,29.64,SSE,157,0.0,0.0,82,0.00,,,0.00,WUHU21623XXSP,2013-10-04 05:17:00,
2013-10-04 01:18:00,63.7,58.1,29.64,SSE,157,0.0,0.0,82,0.00,,,0.00,WUHU21623XXSP,2013-10-04 05:18:00,
2013-10-04 01:24:00,64.0,58.8,29.64,SSE,157,0.0,0.0,83,0.00,,,0.00,WUHU21623XXSP,2013-10-04 05:24:00,
2013-10-04 01:26:00,64.0,58.8,29.64,SSE,157,0.0,0.0,83,0.00,,,0.00,WUHU21623XXSP,2013-10-04 05:26:00,
2013-10-04 01:31:00,63.9,58.6,29.64,SSE,157,0.0,0.0,83,0.00,,,0.00,WUHU21623XXSP,2013-10-04 05:31:00,
2013-10-04 01:36:00,63.7,58.4,29.64,SSE,157,0.0,0.0,83,0.00,,,0.00,WUHU21623XXSP,2013-10-04 05:36:00,
2013-10-04 01:41:00,63.7,58.7,29.65,SSE,157,0.0,0.0,84,0.00,,,0.00,WUHU21623XXSP,2013-10-04 05:41:00,
2013-10-04 01:46:00,63.5,58.9,29.65,SSE,157,0.0,0.0,85,0.00,,,0.00,WUHU21623XXSP,2013-10-04 05:46:00,
2013-10-04 01:51:00,63.3,58.7,29.65,SSE,157,0.0,0.0,85,0.00,,,0.00,WUHU21623XXSP,2013-10-04 05:51:00,
2013-10-04 01:56:00,63.5,58.9,29.64,SSE,157,0.0,0.0,85,0.00,,,0.00,WUHU21623XXSP,2013-10-04 05:56:00,
2013-10-04 02:01:00,63.9,59.3,29.64,SSE,157,0.0,0.0,85,0.00,,,0.00,WUHU21623XXSP,2013-10-04 06:01:00,
2013-10-04 02:06:00,64.0,59.5,29.64,SSE,157,0.0,0.0,85,0.00,,,0.00,WUHU21623XXSP,2013-10-04 06:06:00,
2013-10-04 02:11:00,64.2,59.6,29.64,SSE,157,0.0,0.0,85,0.00,,,0.00,WUHU21623XXSP,2013-10-04 06:11:00,
2013-10-04 02:17:00,64.6,60.0,29.64,SSE,157,0.0,0.0,85,0.00,,,0.00,WUHU21623XXSP,2013-10-04 06:17:00,
2013-10-04 02:22:00,64.6,60.0,29.64,SSE,157,0.0,0.0,85,0.00,,,0.00,WUHU21623XXSP,2013-10-04 06:22:00,
2013-10-04 02:27:00,64.8,60.2,29.64,SSE,157,0.0,0.0,85,0.00,,,0.00,WUHU21623XXSP,2013-10-04 06:27:00,
2013-10-04 02:32:00,64.8,60.2,29.64,SSE,157,0.0,0.0,85,0.00,,,0.00,WUHU21623XXSP,2013-10-04 06:32:00,
2013-10-04 02:37:00,64.8,60.2,29.64,SSE,157,0.0,0.0,85,0.00,,,0.00,WUHU21623XXSP,2013-10-04 06:37:00,
2013-10-04 02:42:00,64.6,60.3,29.64,SSE,157,0.0,0.0,86,0.00,,,0.00,WUHU21623XXSP,2013-10-04 06:42:00,
2013-10-04 02:47:00,64.6,60.3,29.64,SSE,157,0.0,0.0,86,0.00,,,0.00,WUHU21623XXSP,2013-10-04 06:47:00,
2013-10-04 02:53:00,64.2,60.0,29.64,SSE,157,0.0,0.0,86,0.00,,,0.00,WUHU21623XXSP,2013-10-04 06:53:00,
2013-10-04 02:58:00,64.2,60.0,29.63,SSE,157,0.0,0.0,86,0.00,,,0.00,WUHU21623XXSP,2013-10-04 06:58:00,
2013-10-04 03:03:00,64.0,59.8,29.64,SSE,157,0.0,0.0,86,0.00,,,0.00,WUHU21623XXSP,2013-10-04 07:03:00,
2013-10-04 03:08:00,64.0,60.1,29.64,SSE,157,0.0,0.0,87,0.00,,,0.00,WUHU21623XXSP,2013-10-04 07:08:00,
2013-10-04 03:13:00,63.7,59.8,29.64,SSE,157,0.0,0.0,87,0.00,,,0.00,WUHU21623XXSP,2013-10-04 07:13:00,
2013-10-04 03:18:00,63.5,59.9,29.64,SSE,157,0.0,0.0,88,0.00,,,0.00,WUHU21623XXSP,2013-10-04 07:18:00,
2013-10-04 03:24:00,63.3,60.1,29.63,SSE,157,0.0,0.0,89,0.00,,,0.00,WUHU21623XXSP,2013-10-04 07:24:00,
2013-10-04 03:29:00,63.1,59.9,29.64,SSE,157,0.0,0.0,89,0.00,,,0.00,WUHU21623XXSP,2013-10-04 07:29:00,
2013-10-04 03:34:00,62.8,59.6,29.64,SSE,157,0.0,0.0,89,0.00,,,0.00,WUHU21623XXSP,2013-10-04 07:34:00,
2013-10-04 03:39:00,62.6,59.4,29.63,SSE,157,0.0,0.0,89,0.00,,,0.00,WUHU21623XXSP,2013-10-04 07:39:00,
2013-10-04 03:44:00,62.4,59.5,29.63,SSE,157,0.0,0.0,90,0.00,,,0.00,WUHU21623XXSP,2013-10-04 07:44:00,
2013-10-04 03:49:00,62.4,59.5,29.63,SSE,157,0.0,0.0,90,0.00,,,0.00,WUHU21623XXSP,2013-10-04 07:49:00,
2013-10-04 03:55:00,62.2,59.4,29.63,SSE,157,0.0,0.0,90,0.00,,,0.00,WUHU21623XXSP,2013-10-04 07:55:00,
2013-10-04 03:59:00,62.1,59.2,29.63,SSE,157,0.0,0.0,90,0.00,,,0.00,WUHU21623XXSP,2013-10-04 07:59:00,
2013-10-04 04:04:00,61.9,59.0,29.63,SSE,157,0.0,0.0,90,0.00,,,0.00,WUHU21623XXSP,2013-10-04 08:04:00,
2013-10-04 04:11:00,61.9,59.3,29.63,SSE,157,0.0,0.0,91,0.00,,,0.00,WUHU21623XXSP,2013-10-04 08:11:00,
2013-10-04 04:16:00,61.9,59.3,29.62,SSE,157,0.0,0.0,91,0.00,,,0.00,WUHU21623XXSP,2013-10-04 08:16:00,
2013-10-04 04:21:00,61.5,58.9,29.62,SSE,157,0.0,0.0,91,0.00,,,0.00,WUHU21623XXSP,2013-10-04 08:21:00,
2013-10-04 04:26:00,61.3,58.7,29.62,SSE,157,0.0,0.0,91,0.00,,,0.00,WUHU21623XXSP,2013-10-04 08:26:00,
2013-10-04 04:31:00,61.3,58.7,29.62,SSE,157,0.0,0.0,91,0.00,,,0.00,WUHU21623XXSP,2013-10-04 08:31:00,
2013-10-04 04:36:00,61.3,58.7,29.62,SSE,157,0.0,0.0,91,0.00,,,0.00,WUHU21623XXSP,2013-10-04 08:36:00,
2013-10-04 04:41:00,61.3,58.7,29.62,SSE,157,0.0,0.0,91,0.00,,,0.00,WUHU21623XXSP,2013-10-04 08:41:00,
2013-10-04 04:46:00,61.3,58.7,29.63,SSE,157,0.0,0.0,91,0.00,,,0.00,WUHU21623XXSP,2013-10-04 08:46:00,
2013-10-04 04:51:00,61.3,58.7,29.63,SSE,157,0.0,0.0,91,0.00,,,0.00,WUHU21623XXSP,2013-10-04 08:51:00,
2013-10-04 04:56:00,61.3,58.7,29.63,SSE,157,0.0,0.0,91,0.00,,,0.00,WUHU21623XXSP,2013-10-04 08:56:00,
2013-10-04 05:01:00,61.3,58.7,29.63,SSE,157,0.0,0.0,91,0.00,,,0.00,WUHU21623XXSP,2013-10-04 09:01:00,
2013-10-04 05:06:00,61.3,58.7,29.63,SSE,157,0.0,0.0,91,0.00,,,0.00,WUHU21623XXSP,2013-10-04 09:06:00,
2013-10-04 05:11:00,61.2,58.6,29.63,SSE,157,0.0,0.0,91,0.00,,,0.00,WUHU21623XXSP,2013-10-04 09:11:00,
2013-10-04 05:16:00,61.2,58.6,29.63,SSE,157,0.0,0.0,91,0.00,,,0.00,WUHU21623XXSP,2013-10-04 09:16:00,
2013-10-04 05:21:00,61.0,58.4,29.63,SSE,157,0.0,0.0,91,0.00,,,0.00,WUHU21623XXSP,2013-10-04 09:21:00,
2013-10-04 05:27:00,61.0,58.4,29.63,SSE,157,0.0,0.0,91,0.00,,,0.00,WUHU21623XXSP,2013-10-04 09:27:00,
2013-10-04 05:32:00,60.6,58.0,29.63,SSE,157,0.0,0.0,91,0.00,,,0.00,WUHU21623XXSP,2013-10-04 09:32:00,
2013-10-04 05:37:00,60.4,57.8,29.63,SSE,157,0.0,0.0,91,0.00,,,0.00,WUHU21623XXSP,2013-10-04 09:37:00,
2013-10-04 05:42:00,60.4,58.1,29.63,SSE,157,0.0,0.0,92,0.00,,,0.00,WUHU21623XXSP,2013-10-04 09:42:00,
2013-10-04 05:47:00,60.4,58.1,29.64,SSE,157,0.0,0.0,92,0.00,,,0.00,WUHU21623XXSP,2013-10-04 09:47:00,
2013-10-04 05:52:00,60.6,58.3,29.64,SSE,157,0.0,0.0,92,0.00,,,0.00,WUHU21623XXSP,2013-10-04 09:52:00,
2013-10-04 05:57:00,60.6,58.3,29.64,SSE,157,0.0,0.0,92,0.00,,,0.00,WUHU21623XXSP,2013-10-04 09:57:00,
2013-10-04 06:02:00,60.6,58.3,29.64,SSE,157,0.0,0.0,92,0.00,,,0.00,WUHU21623XXSP,2013-10-04 10:02:00,
2013-10-04 06:07:00,60.4,58.1,29.64,SSE,157,0.0,0.0,92,0.00,,,0.00,WUHU21623XXSP,2013-10-04 10:07:00,
2013-10-04 06:12:00,60.4,58.1,29.65,SSE,157,0.0,0.0,92,0.00,,,0.00,WUHU21623XXSP,2013-10-04 10:12:00,
2013-10-04 06:17:00,60.4,58.1,29.65,SSE,157,0.0,0.0,92,0.00,,,0.00,WUHU21623XXSP,2013-10-04 10:17:00,
2013-10-04 06:22:00,60.3,58.1,29.65,SSE,157,0.0,0.0,92,0.00,,,0.00,WUHU21623XXSP,2013-10-04 10:22:00,
2013-10-04 06:27:00,60.3,58.0,29.65,SSE,157,0.0,0.0,92,0.00,,,0.00,WUHU21623XXSP,2013-10-04 10:27:00,
2013-10-04 06:32:00,60.1,57.8,29.65,SSE,157,0.0,0.0,92,0.00,,,0.00,WUHU21623XXSP,2013-10-04 10:32:00,
2013-10-04 06:37:00,60.4,58.1,29.65,SSE,157,0.0,0.0,92,0.00,,,0.00,WUHU21623XXSP,2013-10-04 10:37:00,
2013-10-04 06:42:00,60.4,58.1,29.65,SSE,157,0.0,0.0,92,0.00,,,0.00,WUHU21623XXSP,2013-10-04 10:42:00,
2013-10-04 06:47:00,60.4,58.1,29.65,SSE,157,0.0,0.0,92,0.00,,,0.00,WUHU21623XXSP,2013-10-04 10:47:00,
2013-10-04 06:52:00,60.4,58.1,29.65,SSE,157,0.0,0.0,92,0.00,,,0.00,WUHU21623XXSP,2013-10-04 10:52:00,
2013-10-04 06:57:00,60.4,58.1,29.66,SSE,157,0.0,0.0,92,0.00,,,0.00,WUHU21623XXSP,2013-10-04 10:57:00,
2013-10-04 07:02:00,60.4,58.1,29.65,SSE,157,0.0,0.0,92,0.00,,,0.00,WUHU21623XXSP,2013-10-04 11:02:00,
2013-10-04 07:07:00,60.4,58.1,29.66,SSE,157,0.0,0.0,92,0.00,,,0.00,WUHU21623XXSP,2013-10-04 11:07:00,
2013-10-04 07:12:00,60.4,58.1,29.66,SSE,157,0.0,0.0,92,0.00,,,0.00,WUHU21623XXSP,2013-10-04 11:12:00,
2013-10-04 07:15:00,60.4,58.1,29.66,SSE,157,0.0,0.0,92,0.00,,,0.00,WUHU21623XXSP,2013-10-04 11:15:00,
2013-10-04 07:17:00,60.4,58.1,29.66,SSE,157,0.0,0.0,92,0.00,,,0.00,WUHU21623XXSP,2013-10-04 11:17:00,
2013-10-04 07:22:00,60.4,58.1,29.66,SSE,157,0.0,0.0,92,0.00,,,0.00,WUHU21623XXSP,2013-10-04 11:22:00,
2013-10-04 08:25:00,66.6,66.3,29.68,SSE,157,0.0,0.0,99,0.00,,,0.00,WUHU21623XXSP,2013-10-04 12:25:00,
2013-10-04 08:30:00,68.2,67.9,29.67,SSE,157,0.0,0.0,99,0.00,,,0.00,WUHU21623XXSP,2013-10-04 12:30:00,
2013-10-04 08:32:00,68.7,68.4,29.68,SSE,157,0.0,0.0,99,0.00,,,0.00,WUHU21623XXSP,2013-10-04 12:32:00,
2013-10-04 08:35:00,68.7,68.4,29.68,SSE,157,0.0,0.0,99,0.00,,,0.00,WUHU21623XXSP,2013-10-04 12:35:00,
2013-10-04 08:40:00,68.7,68.4,29.68,SSE,157,0.0,0.0,99,0.00,,,0.00,WUHU21623XXSP,2013-10-04 12:40:00,
2013-10-04 09:02:00,76.8,76.5,29.68,SSE,157,0.0,0.0,99,0.00,,,0.00,WUHU21623XXSP,2013-10-04 13:02:00,
2013-10-04 09:07:00,77.5,77.2,29.68,SSE,157,0.0,0.0,99,0.00,,,0.00,WUHU21623XXSP,2013-10-04 13:07:00,
2013-10-04 09:11:00,78.1,77.8,29.68,SSE,157,0.0,0.0,99,0.00,,,0.00,WUHU21623XXSP,2013-10-04 13:11:00,
2013-10-04 09:16:00,78.1,77.8,29.68,SSE,157,0.0,0.0,99,0.00,,,0.00,WUHU21623XXSP,2013-10-04 13:16:00,
2013-10-04 09:23:00,80.4,70.6,29.68,SSE,157,0.0,0.0,72,0.00,,,0.00,WUHU21623XXSP,2013-10-04 13:23:00,
2013-10-04 09:28:00,80.4,70.2,29.68,ESE,112,0.0,0.0,71,0.00,,,0.00,WUHU21623XXSP,2013-10-04 13:28:00,
2013-10-04 09:33:00,80.6,70.4,29.69,ESE,112,0.0,0.0,71,0.00,,,0.00,WUHU21623XXSP,2013-10-04 13:33:00,
2013-10-04 09:38:00,81.1,70.5,29.68,ESE,112,0.0,0.0,70,0.00,,,0.00,WUHU21623XXSP,2013-10-04 13:38:00,
2013-10-04 09:43:00,81.7,71.0,29.69,ESE,112,0.0,0.0,70,0.00,,,0.00,WUHU21623XXSP,2013-10-04 13:43:00,
2013-10-04 09:48:00,82.2,71.0,29.69,ESE,112,0.0,0.0,69,0.00,,,0.00,WUHU21623XXSP,2013-10-04 13:48:00,
2013-10-04 09:53:00,82.9,71.2,29.69,ESE,112,0.0,0.0,68,0.00,,,0.00,WUHU21623XXSP,2013-10-04 13:53:00,
2013-10-04 09:58:00,83.5,70.9,29.69,ESE,112,0.0,0.0,66,0.00,,,0.00,WUHU21623XXSP,2013-10-04 13:58:00,
2013-10-04 10:03:00,84.0,71.0,29.69,ESE,112,0.0,0.0,65,0.00,,,0.00,WUHU21623XXSP,2013-10-04 14:03:00,
2013-10-04 10:08:00,84.4,71.3,29.69,ESE,112,0.0,0.0,65,0.00,,,0.00,WUHU21623XXSP,2013-10-04 14:08:00,
2013-10-04 10:13:00,84.7,71.2,29.69,ESE,112,0.0,0.0,64,0.00,,,0.00,WUHU21623XXSP,2013-10-04 14:13:00,
2013-10-04 10:18:00,85.1,71.1,29.69,ESE,112,0.0,0.0,63,0.00,,,0.00,WUHU21623XXSP,2013-10-04 14:18:00,
2013-10-04 10:23:00,85.3,70.8,29.70,ESE,112,0.0,0.0,62,0.00,,,0.00,WUHU21623XXSP,2013-10-04 14:23:00,
2013-10-04 10:28:00,85.8,71.3,29.70,ESE,112,0.0,0.0,62,0.00,,,0.00,WUHU21623XXSP,2013-10-04 14:28:00,
2013-10-04 10:33:00,86.5,71.1,29.69,ESE,112,0.0,0.0,60,0.00,,,0.00,WUHU21623XXSP,2013-10-04 14:33:00,
2013-10-04 10:38:00,87.6,71.6,29.69,ESE,112,0.0,0.0,59,0.00,,,0.00,WUHU21623XXSP,2013-10-04 14:38:00,
2013-10-04 10:43:00,87.8,70.7,29.69,ESE,112,0.0,0.0,57,0.00,,,0.00,WUHU21623XXSP,2013-10-04 14:43:00,
2013-10-04 10:48:00,87.6,70.0,29.69,ESE,112,0.0,0.0,56,0.00,,,0.00,WUHU21623XXSP,2013-10-04 14:48:00,
2013-10-04 10:54:00,88.5,71.3,29.69,ESE,112,0.0,0.0,57,0.00,,,0.00,WUHU21623XXSP,2013-10-04 14:54:00,
2013-10-04 10:59:00,89.4,70.5,29.69,ESE,112,0.0,0.0,54,0.00,,,0.00,WUHU21623XXSP,2013-10-04 14:59:00,
2013-10-04 11:04:00,89.8,69.2,29.69,ESE,112,0.0,0.0,51,0.00,,,0.00,WUHU21623XXSP,2013-10-04 15:04:00,
2013-10-04 11:11:00,88.9,69.5,29.69,SE,135,0.0,0.0,53,0.00,,,0.00,WUHU21623XXSP,2013-10-04 15:11:00,
2013-10-04 11:16:00,88.9,69.0,29.69,SE,135,0.0,0.0,52,0.00,,,0.00,WUHU21623XXSP,2013-10-04 15:16:00,
2013-10-04 11:17:00,88.9,69.0,29.69,SE,135,0.0,0.0,52,0.00,,,0.00,WUHU21623XXSP,2013-10-04 15:17:00,
2013-10-04 11:22:00,89.4,68.9,29.69,SSE,157,0.0,0.0,51,0.00,,,0.00,WUHU21623XXSP,2013-10-04 15:22:00,
2013-10-04 11:27:00,90.5,69.9,29.69,SSE,157,0.0,0.0,51,0.00,,,0.00,WUHU21623XXSP,2013-10-04 15:27:00,
2013-10-04 11:32:00,91.8,69.2,29.69,SSE,157,0.0,0.0,48,0.00,,,0.00,WUHU21623XXSP,2013-10-04 15:32:00,
2013-10-04 11:38:00,92.5,68.5,29.69,SE,135,0.0,0.0,46,0.00,,,0.00,WUHU21623XXSP,2013-10-04 15:38:00,
2013-10-04 11:45:00,93.4,68.7,29.69,ENE,67,0.0,0.0,45,0.00,,,0.00,WUHU21623XXSP,2013-10-04 15:45:00,
2013-10-04 11:50:00,94.1,69.4,29.69,East,90,0.0,0.0,45,0.00,,,0.00,WUHU21623XXSP,2013-10-04 15:50:00,
2013-10-04 11:55:00,94.6,68.6,29.69,SE,135,0.0,0.0,43,0.00,,,0.00,WUHU21623XXSP,2013-10-04 15:55:00,
2013-10-04 12:01:00,94.8,68.1,29.68,NE,45,0.0,0.0,42,0.00,,,0.00,WUHU21623XXSP,2013-10-04 16:01:00,
2013-10-04 12:08:00,96.4,68.9,29.68,SSE,157,0.0,0.0,41,0.00,,,0.00,WUHU21623XXSP,2013-10-04 16:08:00,
2013-10-04 12:13:00,97.0,68.7,29.68,SSE,157,0.0,0.0,40,0.00,,,0.00,WUHU21623XXSP,2013-10-04 16:13:00,
2013-10-04 12:19:00,97.9,68.7,29.68,SSE,157,0.0,0.0,39,0.00,,,0.00,WUHU21623XXSP,2013-10-04 16:19:00,
2013-10-04 12:26:00,99.1,69.8,29.68,SSE,157,0.0,0.0,39,0.00,,,0.00,WUHU21623XXSP,2013-10-04 16:26:00,
2013-10-04 12:33:00,99.9,70.5,29.68,SSE,157,0.0,0.0,39,0.00,,,0.00,WUHU21623XXSP,2013-10-04 16:33:00,
2013-10-04 12:40:00,100.8,68.8,29.68,SSE,157,0.0,0.0,36,0.00,,,0.00,WUHU21623XXSP,2013-10-04 16:40:00,
2013-10-04 12:45:00,100.9,68.9,29.68,SE,135,0.0,0.0,36,0.00,,,0.00,WUHU21623XXSP,2013-10-04 16:45:00,
2013-10-04 12:51:00,102.0,69.0,29.67,SE,135,0.0,0.0,35,0.00,,,0.00,WUHU21623XXSP,2013-10-04 16:51:00,
2013-10-04 12:57:00,103.1,69.1,29.67,NE,45,0.0,0.0,34,0.00,,,0.00,WUHU21623XXSP,2013-10-04 16:57:00,
2013-10-04 13:03:00,102.4,68.5,29.67,ESE,112,0.0,0.0,34,0.00,,,0.00,WUHU21623XXSP,2013-10-04 17:03:00,
2013-10-04 13:10:00,102.9,69.0,29.66,ENE,67,0.0,0.0,34,0.00,,,0.00,WUHU21623XXSP,2013-10-04 17:10:00,
2013-10-04 13:20:00,104.9,69.0,29.66,NE,45,0.0,0.0,32,0.00,,,0.00,WUHU21623XXSP,2013-10-04 17:20:00,
2013-10-04 13:25:00,105.4,68.6,29.66,NE,45,0.0,0.0,31,0.00,,,0.00,WUHU21623XXSP,2013-10-04 17:25:00,
2013-10-04 14:00:00,90.7,63.7,29.65,SSE,157,0.0,0.0,41,0.00,,,0.00,WUHU21623XXSP,2013-10-04 18:00:00,
2013-10-04 14:08:00,88.9,63.4,29.64,SSE,157,0.0,0.0,43,0.00,,,0.00,WUHU21623XXSP,2013-10-04 18:08:00,
2013-10-04 14:16:00,88.2,63.4,29.64,WSW,247,0.0,0.0,44,0.00,,,0.00,WUHU21623XXSP,2013-10-04 18:16:00,
2013-10-04 14:22:00,91.2,65.5,29.64,WSW,247,0.0,0.0,43,0.00,,,0.00,WUHU21623XXSP,2013-10-04 18:22:00,
2013-10-04 14:29:00,93.9,66.1,29.63,WSW,247,0.0,0.0,40,0.00,,,0.00,WUHU21623XXSP,2013-10-04 18:29:00,
2013-10-04 14:36:00,97.9,67.0,29.63,WSW,247,0.0,0.0,37,0.00,,,0.00,WUHU21623XXSP,2013-10-04 18:36:00,
2013-10-04 14:42:00,97.0,65.4,29.63,NE,45,0.0,0.0,36,0.00,,,0.00,WUHU21623XXSP,2013-10-04 18:42:00,
2013-10-04 14:49:00,100.2,67.5,29.63,WSW,247,0.0,0.0,35,0.00,,,0.00,WUHU21623XXSP,2013-10-04 18:49:00,
2013-10-04 14:55:00,103.1,66.6,29.63,SE,135,0.0,0.0,31,0.00,,,0.00,WUHU21623XXSP,2013-10-04 18:55:00,
2013-10-04 15:03:00,103.6,66.2,29.63,ESE,112,0.0,0.0,30,0.00,,,0.00,WUHU21623XXSP,2013-10-04 19:03:00,
2013-10-04 15:08:00,104.5,67.0,29.62,SE,135,0.0,0.0,30,0.00,,,0.00,WUHU21623XXSP,2013-10-04 19:08:00,
2013-10-04 15:13:00,104.2,66.7,29.62,WSW,247,0.0,0.0,30,0.00,,,0.00,WUHU21623XXSP,2013-10-04 19:13:00,
2013-10-04 15:18:00,104.4,66.8,29.62,WSW,247,0.0,0.0,30,0.00,,,0.00,WUHU21623XXSP,2013-10-04 19:18:00,
2013-10-04 15:29:00,104.7,67.1,29.62,SSE,157,0.0,0.0,30,0.00,,,0.00,WUHU21623XXSP,2013-10-04 19:29:00,
2013-10-04 15:38:00,98.2,64.0,29.62,SSE,157,0.0,0.0,33,0.00,,,0.00,WUHU21623XXSP,2013-10-04 19:38:00,
2013-10-04 15:43:00,97.2,63.9,29.62,SSE,157,0.0,0.0,34,0.00,,,0.00,WUHU21623XXSP,2013-10-04 19:43:00,
2013-10-04 15:48:00,96.1,63.0,29.62,SSE,157,0.0,0.0,34,0.00,,,0.00,WUHU21623XXSP,2013-10-04 19:48:00,
2013-10-04 15:54:00,93.0,61.9,29.62,SSE,157,0.0,0.0,36,0.00,,,0.00,WUHU21623XXSP,2013-10-04 19:54:00,
2013-10-04 16:01:00,89.8,61.4,29.61,SSE,157,0.0,0.0,39,0.00,,,0.00,WUHU21623XXSP,2013-10-04 20:01:00,
2013-10-04 16:10:00,87.1,61.2,29.61,SSE,157,0.0,0.0,42,0.00,,,0.00,WUHU21623XXSP,2013-10-04 20:10:00,
2013-10-04 16:15:00,86.2,61.1,29.61,SSE,157,0.0,0.0,43,0.00,,,0.00,WUHU21623XXSP,2013-10-04 20:15:00,
2013-10-04 16:25:00,85.1,61.3,29.61,SSE,157,0.0,0.0,45,0.00,,,0.00,WUHU21623XXSP,2013-10-04 20:25:00,
2013-10-04 16:36:00,85.6,61.2,29.61,SSE,157,0.0,0.0,44,0.00,,,0.00,WUHU21623XXSP,2013-10-04 20:36:00,
2013-10-04 16:47:00,85.6,61.2,29.61,SSE,157,0.0,0.0,44,0.00,,,0.00,WUHU21623XXSP,2013-10-04 20:47:00,
2013-10-04 16:52:00,85.5,61.0,29.61,SSE,157,0.0,0.0,44,0.00,,,0.00,WUHU21623XXSP,2013-10-04 20:52:00,
2013-10-04 16:57:00,85.3,61.5,29.61,SSE,157,0.0,0.0,45,0.00,,,0.00,WUHU21623XXSP,2013-10-04 20:57:00,
2013-10-04 17:02:00,84.9,61.8,29.60,SSE,157,0.0,0.0,46,0.00,,,0.00,WUHU21623XXSP,2013-10-04 21:02:00,
2013-10-04 17:10:00,84.0,61.6,29.61,SSE,157,0.0,0.0,47,0.00,,,0.00,WUHU21623XXSP,2013-10-04 21:10:00,
2013-10-04 17:15:00,83.5,61.7,29.61,SSE,157,0.0,0.0,48,0.00,,,0.00,WUHU21623XXSP,2013-10-04 21:15:00,
2013-10-04 17:21:00,83.1,62.0,29.61,SSE,157,0.0,0.0,49,0.00,,,0.00,WUHU21623XXSP,2013-10-04 21:21:00,
2013-10-04 17:26:00,82.8,61.6,29.61,SSE,157,0.0,0.0,49,0.00,,,0.00,WUHU21623XXSP,2013-10-04 21:26:00,
2013-10-04 17:31:00,82.2,61.7,29.61,SSE,157,0.0,0.0,50,0.00,,,0.00,WUHU21623XXSP,2013-10-04 21:31:00,
2013-10-04 17:36:00,82.0,61.6,29.61,SSE,157,0.0,0.0,50,0.00,,,0.00,WUHU21623XXSP,2013-10-04 21:36:00,
2013-10-04 17:41:00,82.0,61.6,29.61,SSE,157,0.0,0.0,50,0.00,,,0.00,WUHU21623XXSP,2013-10-04 21:41:00,
2013-10-04 17:46:00,81.7,61.2,29.61,SSE,157,0.0,0.0,50,0.00,,,0.00,WUHU21623XXSP,2013-10-04 21:46:00,
2013-10-04 17:52:00,81.9,61.9,29.61,SSE,157,0.0,0.0,51,0.00,,,0.00,WUHU21623XXSP,2013-10-04 21:52:00,
2013-10-04 17:57:00,81.7,61.2,29.61,SSE,157,0.0,0.0,50,0.00,,,0.00,WUHU21623XXSP,2013-10-04 21:57:00,
2013-10-04 18:02:00,81.3,61.4,29.61,SSE,157,0.0,0.0,51,0.00,,,0.00,WUHU21623XXSP,2013-10-04 22:02:00,
2013-10-04 18:10:00,81.3,61.4,29.61,SSE,157,0.0,0.0,51,0.00,,,0.00,WUHU21623XXSP,2013-10-04 22:10:00,
2013-10-04 18:16:00,80.6,60.8,29.61,SSE,157,0.0,0.0,51,0.00,,,0.00,WUHU21623XXSP,2013-10-04 22:16:00,
2013-10-04 18:22:00,80.1,60.8,29.61,SE,135,0.0,0.0,52,0.00,,,0.00,WUHU21623XXSP,2013-10-04 22:22:00,
2013-10-04 18:28:00,81.3,62.0,29.61,SSE,157,0.0,0.0,52,0.00,,,0.00,WUHU21623XXSP,2013-10-04 22:28:00,
2013-10-04 18:39:00,79.5,61.4,29.61,SSE,157,0.0,0.0,54,0.00,,,0.00,WUHU21623XXSP,2013-10-04 22:39:00,
2013-10-04 18:44:00,78.6,61.1,29.61,SSE,157,0.0,0.0,55,0.00,,,0.00,WUHU21623XXSP,2013-10-04 22:44:00,
2013-10-04 18:49:00,78.1,61.1,29.62,SSE,157,0.0,0.0,56,0.00,,,0.00,WUHU21623XXSP,2013-10-04 22:49:00,
2013-10-04 18:54:00,77.5,61.1,29.61,SSE,157,0.0,0.0,57,0.00,,,0.00,WUHU21623XXSP,2013-10-04 22:54:00,
2013-10-04 19:00:00,77.2,61.2,29.61,SSE,157,0.0,0.0,58,0.00,,,0.00,WUHU21623XXSP,2013-10-04 23:00:00,
2013-10-04 19:05:00,76.6,61.2,29.61,SSE,157,0.0,0.0,59,0.00,,,0.00,WUHU21623XXSP,2013-10-04 23:05:00,
2013-10-04 19:11:00,75.9,60.6,29.61,SSE,157,0.0,0.0,59,0.00,,,0.00,WUHU21623XXSP,2013-10-04 23:11:00,
2013-10-04 19:16:00,75.4,60.6,29.62,SSE,157,0.0,0.0,60,0.00,,,0.00,WUHU21623XXSP,2013-10-04 23:16:00,
2013-10-04 19:21:00,75.0,60.7,29.62,SSE,157,0.0,0.0,61,0.00,,,0.00,WUHU21623XXSP,2013-10-04 23:21:00,
2013-10-04 19:26:00,74.3,60.4,29.61,SSE,157,0.0,0.0,62,0.00,,,0.00,WUHU21623XXSP,2013-10-04 23:26:00,
2013-10-04 19:31:00,73.9,60.1,29.62,SSE,157,0.0,0.0,62,0.00,,,0.00,WUHU21623XXSP,2013-10-04 23:31:00,
2013-10-04 19:36:00,73.6,60.2,29.62,SSE,157,0.0,0.0,63,0.00,,,0.00,WUHU21623XXSP,2013-10-04 23:36:00,
2013-10-04 19:41:00,73.2,60.3,29.62,SSE,157,0.0,0.0,64,0.00,,,0.00,WUHU21623XXSP,2013-10-04 23:41:00,
2013-10-04 19:46:00,72.9,59.9,29.62,SSE,157,0.0,0.0,64,0.00,,,0.00,WUHU21623XXSP,2013-10-04 23:46:00,
2013-10-04 19:51:00,72.3,59.4,29.61,SSE,157,0.0,0.0,64,0.00,,,0.00,WUHU21623XXSP,2013-10-04 23:51:00,
2013-10-04 19:56:00,72.1,59.7,29.62,SSE,157,0.0,0.0,65,0.00,,,0.00,WUHU21623XXSP,2013-10-04 23:56:00,
2013-10-04 20:01:00,72.0,59.5,29.62,SSE,157,0.0,0.0,65,0.00,,,0.00,WUHU21623XXSP,2013-10-05 00:01:00,
2013-10-04 20:06:00,71.4,59.4,29.62,SSE,157,0.0,0.0,66,0.00,,,0.00,WUHU21623XXSP,2013-10-05 00:06:00,
2013-10-04 20:11:00,71.2,59.3,29.63,SSE,157,0.0,0.0,66,0.00,,,0.00,WUHU21623XXSP,2013-10-05 00:11:00,
2013-10-04 20:16:00,70.9,59.3,29.63,SSE,157,0.0,0.0,67,0.00,,,0.00,WUHU21623XXSP,2013-10-05 00:16:00,
2013-10-04 20:21:00,70.7,59.2,29.63,SSE,157,0.0,0.0,67,0.00,,,0.00,WUHU21623XXSP,2013-10-05 00:21:00,
2013-10-04 20:26:00,70.5,59.0,29.63,SSE,157,0.0,0.0,67,0.00,,,0.00,WUHU21623XXSP,2013-10-05 00:26:00,
2013-10-04 20:31:00,70.3,59.2,29.63,SSE,157,0.0,0.0,68,0.00,,,0.00,WUHU21623XXSP,2013-10-05 00:31:00,
2013-10-04 20:36:00,70.3,58.8,29.63,SSE,157,0.0,0.0,67,0.00,,,0.00,WUHU21623XXSP,2013-10-05 00:36:00,
2013-10-04 20:41:00,70.0,58.9,29.63,SSE,157,0.0,0.0,68,0.00,,,0.00,WUHU21623XXSP,2013-10-05 00:41:00,
2013-10-04 20:46:00,69.6,58.5,29.63,SSE,157,0.0,0.0,68,0.00,,,0.00,WUHU21623XXSP,2013-10-05 00:46:00,
2013-10-04 20:51:00,69.6,58.9,29.63,SSE,157,0.0,0.0,69,0.00,,,0.00,WUHU21623XXSP,2013-10-05 00:51:00,
2013-10-04 20:56:00,69.4,59.2,29.63,SSE,157,0.0,0.0,70,0.00,,,0.00,WUHU21623XXSP,2013-10-05 00:56:00,
2013-10-04 21:01:00,69.4,59.2,29.63,SSE,157,0.0,0.0,70,0.00,,,0.00,WUHU21623XXSP,2013-10-05 01:01:00,
2013-10-04 21:06:00,69.4,59.6,29.63,SSE,157,0.0,0.0,71,0.00,,,0.00,WUHU21623XXSP,2013-10-05 01:06:00,
2013-10-04 21:11:00,69.3,59.4,29.63,SSE,157,0.0,0.0,71,0.00,,,0.00,WUHU21623XXSP,2013-10-05 01:11:00,
2013-10-04 21:16:00,69.1,59.3,29.63,SSE,157,0.0,0.0,71,0.00,,,0.00,WUHU21623XXSP,2013-10-05 01:16:00,
2013-10-04 21:21:00,68.7,58.9,29.64,SSE,157,0.0,0.0,71,0.00,,,0.00,WUHU21623XXSP,2013-10-05 01:21:00,
2013-10-04 21:26:00,68.5,58.8,29.64,SSE,157,0.0,0.0,71,0.00,,,0.00,WUHU21623XXSP,2013-10-05 01:26:00,
2013-10-04 21:31:00,68.4,59.0,29.64,SSE,157,0.0,0.0,72,0.00,,,0.00,WUHU21623XXSP,2013-10-05 01:31:00,
2013-10-04 21:36:00,68.4,59.4,29.64,SSE,157,0.0,0.0,73,0.00,,,0.00,WUHU21623XXSP,2013-10-05 01:36:00,
2013-10-04 21:41:00,68.2,59.2,29.64,SSE,157,0.0,0.0,73,0.00,,,0.00,WUHU21623XXSP,2013-10-05 01:41:00,
2013-10-04 21:46:00,68.2,59.2,29.65,SSE,157,0.0,0.0,73,0.00,,,0.00,WUHU21623XXSP,2013-10-05 01:46:00,
2013-10-04 21:51:00,67.8,58.9,29.65,SSE,157,0.0,0.0,73,0.00,,,0.00,WUHU21623XXSP,2013-10-05 01:51:00,
2013-10-04 21:56:00,67.8,59.3,29.65,SSE,157,0.0,0.0,74,0.00,,,0.00,WUHU21623XXSP,2013-10-05 01:56:00,
2013-10-04 22:02:00,67.6,59.5,29.65,SSE,157,0.0,0.0,75,0.00,,,0.00,WUHU21623XXSP,2013-10-05 02:02:00,
2013-10-04 22:07:00,67.6,59.5,29.65,SSE,157,0.0,0.0,75,0.00,,,0.00,WUHU21623XXSP,2013-10-05 02:07:00,
2013-10-04 22:12:00,67.5,59.3,29.65,SSE,157,0.0,0.0,75,0.00,,,0.00,WUHU21623XXSP,2013-10-05 02:12:00,
2013-10-04 22:17:00,67.5,59.6,29.65,SSE,157,0.0,0.0,76,0.00,,,0.00,WUHU21623XXSP,2013-10-05 02:17:00,
2013-10-04 22:22:00,67.3,59.1,29.65,SSE,157,0.0,0.0,75,0.00,,,0.00,WUHU21623XXSP,2013-10-05 02:22:00,
2013-10-04 22:27:00,67.3,59.5,29.65,SSE,157,0.0,0.0,76,0.00,,,0.00,WUHU21623XXSP,2013-10-05 02:27:00,
2013-10-04 22:32:00,67.3,59.8,29.65,SSE,157,0.0,0.0,77,0.00,,,0.00,WUHU21623XXSP,2013-10-05 02:32:00,
2013-10-04 22:37:00,67.3,60.2,29.65,SSE,157,0.0,0.0,78,0.00,,,0.00,WUHU21623XXSP,2013-10-05 02:37:00,
2013-10-04 22:42:00,67.1,60.0,29.65,SSE,157,0.0,0.0,78,0.00,,,0.00,WUHU21623XXSP,2013-10-05 02:42:00,
2013-10-04 22:47:00,66.9,59.9,29.65,SSE,157,0.0,0.0,78,0.00,,,0.00,WUHU21623XXSP,2013-10-05 02:47:00,
2013-10-04 22:52:00,66.9,60.2,29.65,SSE,157,0.0,0.0,79,0.00,,,0.00,WUHU21623XXSP,2013-10-05 02:52:00,
2013-10-04 22:57:00,66.6,60.6,29.65,SSE,157,0.0,0.0,81,0.00,,,0.00,WUHU21623XXSP,2013-10-05 02:57:00,
2013-10-04 23:02:00,66.4,60.1,29.65,SSE,157,0.0,0.0,80,0.00,,,0.00,WUHU21623XXSP,2013-10-05 03:02:00,
2013-10-04 23:07:00,66.4,60.1,29.65,SSE,157,0.0,0.0,80,0.00,,,0.00,WUHU21623XXSP,2013-10-05 03:07:00,
2013-10-04 23:12:00,66.4,60.1,29.65,SSE,157,0.0,0.0,80,0.00,,,0.00,WUHU21623XXSP,2013-10-05 03:12:00,
2013-10-04 23:17:00,66.4,60.1,29.65,SSE,157,0.0,0.0,80,0.00,,,0.00,WUHU21623XXSP,2013-10-05 03:17:00,
2013-10-04 23:22:00,66.2,59.9,29.65,SSE,157,0.0,0.0,80,0.00,,,0.00,WUHU21623XXSP,2013-10-05 03:22:00,
2013-10-04 23:27:00,66.0,59.7,29.65,SSE,157,0.0,0.0,80,0.00,,,0.00,WUHU21623XXSP,2013-10-05 03:27:00,
2013-10-04 23:32:00,66.0,59.7,29.65,SSE,157,0.0,0.0,80,0.00,,,0.00,WUHU21623XXSP,2013-10-05 03:32:00,
2013-10-04 23:37:00,66.0,59.7,29.65,SSE,157,0.0,0.0,80,0.00,,,0.00,WUHU21623XXSP,2013-10-05 03:37:00,
2013-10-04 23:42:00,66.0,60.0,29.65,SSE,157,0.0,0.0,81,0.00,,,0.00,WUHU21623XXSP,2013-10-05 03:42:00,
2013-10-04 23:47:00,65.8,59.9,29.65,SSE,157,0.0,0.0,81,0.00,,,0.00,WUHU21623XXSP,2013-10-05 03:47:00,
2013-10-04 23:52:00,65.7,59.7,29.65,SSE,157,0.0,0.0,81,0.00,,,0.00,WUHU21623XXSP,2013-10-05 03:52:00,
2013-10-04 23:57:00,65.7,59.7,29.65,SSE,157,0.0,0.0,81,0.00,,,0.00,WUHU21623XXSP,2013-10-05 03:57:00,